Arlington, Wisconsin
Current Conditions -  °F | °C
As of 9:53 PM on Friday 28 Nov 2014 (Local Time) from KMSN Reporting Station
Haze Haze  
Wind Chill: 23°   Ceiling: 20000
Heat Index: 28°   Visibility: 6mi
Dew Point: 25°   Wind: 5mph
Humidity: 88%   Direction: 140°SE
Pressure: 29.84"   Gusts: NA
Location:  43.34°N, 89.38°W
Report Text: KMSN 290353Z 14004KT 6SM BR FEW100 SCT150 OVC200 M02/M04 A2984 RMK AO2 SLP119 T10221039
Loading
Personal Weather Stations






























Interactive Weather Map New forecast layout! Learn more

10-Day Weather Forecast

Advertisements
Track Severe Weather on mobile